North White Plains, New York
Current Conditions -  °F | °C
As of 2:56 AM on Tuesday 21 Oct 2014 (Local Time) from KHPN Reporting Station
Scattered Clouds Scattered Clouds  
Wind Chill: 49°   Ceiling: Unl
Heat Index: 49°   Visibility: 10mi
Dew Point: 43°   Wind: 0mph
Humidity: 80%   Direction: NA
Pressure: 29.93"   Gusts: NA
Location:  41.0597°N, 73.7747°W
Report Text: KHPN 210656Z 00000KT 10SM FEW047 SCT120 09/06 A2993 RMK AO2 SLP135 T00940061
Loading
Personal Weather Stations






























Interactive Weather Map
Tropical Storm Tracking
New forecast layout! Learn more

10-Day Weather Forecast

Advertisements
Track Severe Weather on mobile